Elora, Canada
Current Conditions -  °F | °C
As of 12:00 AM on Thursday 23 Oct 2014 (Local Time) from CYKF Reporting Station
Broken Clouds Broken Clouds  
Wind Chill: 39°   Ceiling: 4500
Heat Index: 39°   Visibility: 9mi
Dew Point: 36°   Wind: 3mph
Humidity: 87%   Direction: 330°NNW
Pressure: 30.23"   Gusts: NA
Location:  43.68°N, 80.43°W
Report Text: CYKF 230400Z AUTO 33003KT 9SM BKN045 04/02 A3023 RMK SLP244
Loading
Personal Weather Stations






























Interactive Weather Map
Tropical Storm Tracking
New forecast layout! Learn more

10-Day Weather Forecast

Advertisements
Track Severe Weather on mobile